This is the latest recevied weather packets stored in our database for station/object M0IQF-13. If no packets are shown the sender has not sent any weather packets the latest 10 day(s).
| Time | Temp. | Humidity | Pressure | Rain* | Wind** | Luminosity | Snow |
|---|---|---|---|---|---|---|---|
| 1777155348 | 19.44° C | 41% | 1022 hPa | - | - | - | - |
| 1777154440 | 20° C | 41% | 1021.9 hPa | - | - | - | - |
| 1777153533 | 20° C | 47% | 1021.8 hPa | - | - | - | - |
| 1777152626 | 21.67° C | 43% | 1021.7 hPa | - | - | - | - |
| 1777151719 | 21.11° C | 48% | 1021.8 hPa | - | - | - | - |
| 1777150812 | 18.89° C | 45% | 1021.7 hPa | - | - | - | - |
| 1777149905 | 20° C | 40% | 1021.5 hPa | - | - | - | - |
| 1777148998 | 20° C | 35% | 1021.4 hPa | - | - | - | - |
| 1777148091 | 18.89° C | 23% | 1021.3 hPa | - | - | - | - |
| 1777147184 | 21.11° C | 19% | 1021 hPa | - | - | - | - |
| 1777146276 | 22.22° C | 18% | 1020.7 hPa | - | - | - | - |
| 1777145370 | 23.33° C | 17% | 1020.6 hPa | - | - | - | - |
| 1777144463 | 24.44° C | 16% | 1020.3 hPa | - | - | - | - |
| 1777143555 | 25.56° C | 15% | 1020.1 hPa | - | - | - | - |
| 1777142648 | 25° C | 15% | 1020 hPa | - | - | - | - |
| 1777141741 | 25° C | 15% | 1020.1 hPa | - | - | - | - |
| 1777140834 | 25° C | 15% | 1020 hPa | - | - | - | - |
| 1777139927 | 25.56° C | 16% | 1019.9 hPa | - | - | - | - |
| 1777139020 | 25° C | 16% | 1020 hPa | - | - | - | - |
| 1777138113 | 26.11° C | 15% | 1019.8 hPa | - | - | - | - |
| 1777137206 | 27.22° C | 13% | 1019.7 hPa | - | - | - | - |
| 1777136299 | 28.89° C | 12% | 1019.5 hPa | - | - | - | - |
| 1777135391 | 29.44° C | 12% | 1019.5 hPa | - | - | - | - |
| 1777134484 | 29.44° C | 12% | 1019.5 hPa | - | - | - | - |
| 1777133577 | 30° C | 11% | 1019.5 hPa | - | - | - | - |
* Rain since midnight (hover to see other rain measurements)
** Current wind speed in m/s (hover to see current wind gust speed)